createdAt,value
2018-04-17T00:00:19.251Z,71.52
2018-04-17T00:02:45.530Z,71.32
2018-04-17T00:05:11.775Z,71.09
2018-04-17T00:07:38.015Z,70.97
2018-04-17T00:10:04.323Z,71.32
2018-04-17T00:12:30.587Z,71.06
2018-04-17T00:14:56.830Z,70.38
2018-04-17T00:17:23.098Z,70.30
2018-04-17T00:19:49.335Z,70.42
2018-04-17T00:22:15.570Z,71.22
2018-04-17T00:24:41.836Z,71.68
2018-04-17T00:27:08.096Z,71.77
2018-04-17T00:29:34.342Z,71.43
2018-04-17T00:32:00.634Z,71.10
2018-04-17T00:34:26.873Z,71.32
2018-04-17T00:36:53.123Z,71.27
2018-04-17T00:39:19.402Z,71.22
2018-04-17T00:41:45.667Z,71.16
2018-04-17T00:44:11.911Z,71.18
2018-04-17T00:46:38.171Z,71.26
2018-04-17T00:49:04.450Z,71.48
2018-04-17T00:51:30.691Z,71.29
2018-04-17T00:53:59.927Z,71.57
2018-04-17T00:56:26.168Z,71.40
2018-04-17T00:58:52.434Z,71.50
2018-04-17T01:01:18.766Z,72.09
2018-04-17T01:03:45.016Z,71.89
2018-04-17T01:06:11.267Z,71.36
2018-04-17T01:08:37.537Z,71.02
2018-04-17T01:11:03.790Z,70.89
2018-04-17T01:13:30.074Z,71.41
2018-04-17T01:15:56.384Z,71.97
2018-04-17T01:18:22.636Z,72.45
2018-04-17T01:20:48.908Z,72.24
2018-04-17T01:23:15.188Z,71.24
2018-04-17T01:25:41.440Z,71.22
2018-04-17T01:28:07.683Z,70.93
2018-04-17T01:30:33.983Z,71.20
2018-04-17T01:33:00.227Z,70.81
2018-04-17T01:35:26.517Z,70.92
2018-04-17T01:37:52.791Z,71.36
2018-04-17T01:40:19.047Z,70.87
2018-04-17T01:42:45.296Z,70.94
2018-04-17T01:45:11.599Z,71.04
2018-04-17T01:47:37.888Z,71.85
2018-04-17T01:50:04.139Z,71.50
2018-04-17T01:52:30.420Z,71.17
2018-04-17T01:54:56.695Z,71.46
2018-04-17T01:57:22.940Z,72.16
2018-04-17T01:59:49.203Z,73.31
2018-04-17T02:02:15.480Z,72.79
2018-04-17T02:04:41.751Z,71.69
2018-04-17T02:07:08.042Z,71.49
2018-04-17T02:09:34.282Z,71.01
2018-04-17T02:12:00.543Z,70.81
2018-04-17T02:14:26.802Z,71.13
2018-04-17T02:16:53.051Z,71.44
2018-04-17T02:19:19.323Z,71.54
2018-04-17T02:21:45.564Z,71.61
2018-04-17T02:24:11.799Z,71.67
2018-04-17T02:26:38.083Z,72.05
2018-04-17T02:29:04.327Z,71.92
2018-04-17T02:31:30.603Z,71.90
2018-04-17T02:33:56.860Z,72.08
2018-04-17T02:36:23.107Z,72.47
2018-04-17T02:38:49.371Z,72.29
2018-04-17T02:41:15.643Z,72.10
2018-04-17T02:43:41.924Z,71.99
2018-04-17T02:46:08.219Z,71.81
2018-04-17T02:48:34.464Z,72.15
2018-04-17T02:51:00.738Z,72.30
2018-04-17T02:53:27.007Z,71.84
2018-04-17T02:55:53.283Z,71.60
2018-04-17T02:58:19.537Z,71.42
2018-04-17T03:00:45.804Z,71.10
2018-04-17T03:03:12.066Z,71.63
2018-04-17T03:05:38.342Z,71.59
2018-04-17T03:08:04.642Z,71.39
2018-04-17T03:10:30.890Z,71.49
2018-04-17T03:12:57.160Z,71.19
2018-04-17T03:15:23.427Z,71.29
2018-04-17T03:17:49.706Z,71.34
2018-04-17T03:20:16.031Z,71.50
2018-04-17T03:22:42.284Z,71.54
2018-04-17T03:25:08.531Z,71.33
2018-04-17T03:27:34.807Z,71.34
2018-04-17T03:30:01.062Z,71.58
2018-04-17T03:32:27.352Z,71.61
2018-04-17T03:34:53.599Z,71.64
2018-04-17T03:37:19.834Z,71.64
2018-04-17T03:39:46.119Z,71.61
2018-04-17T03:42:12.383Z,71.62
2018-04-17T03:44:38.683Z,71.67
2018-04-17T03:47:04.922Z,72.09
2018-04-17T03:49:31.190Z,72.00
2018-04-17T03:51:57.467Z,72.13
2018-04-17T03:54:23.731Z,72.13
2018-04-17T03:56:50.008Z,71.98
2018-04-17T03:59:16.272Z,72.07
2018-04-17T04:01:42.530Z,72.15
2018-04-17T04:04:08.784Z,72.14
2018-04-17T04:06:35.044Z,71.99
2018-04-17T04:09:01.323Z,71.92
2018-04-17T04:11:27.568Z,71.88
2018-04-17T04:13:53.806Z,71.93
2018-04-17T04:16:32.231Z,72.14
2018-04-17T04:19:10.767Z,72.17
2018-04-17T04:21:49.468Z,72.02
2018-04-17T04:24:28.075Z,72.28
2018-04-17T04:26:54.383Z,72.30
2018-04-17T04:29:20.618Z,72.32
2018-04-17T04:31:46.899Z,72.40
2018-04-17T04:34:13.199Z,72.69
2018-04-17T04:36:39.433Z,72.67
2018-04-17T04:39:05.727Z,73.10
2018-04-17T04:41:31.967Z,73.17
2018-04-17T04:43:58.238Z,73.59
2018-04-17T04:46:24.480Z,74.00
2018-04-17T04:48:50.747Z,73.71
2018-04-17T04:51:17.025Z,73.44
2018-04-17T04:53:43.257Z,73.05
2018-04-17T04:56:09.538Z,73.01
2018-04-17T04:58:35.798Z,72.97
2018-04-17T05:01:02.029Z,73.14
2018-04-17T05:03:28.287Z,73.13
2018-04-17T05:05:54.574Z,73.62
2018-04-17T05:08:20.838Z,73.54
2018-04-17T05:10:47.096Z,73.72
2018-04-17T05:13:13.338Z,74.05
2018-04-17T05:15:39.604Z,73.66
2018-04-17T05:18:05.831Z,73.62
2018-04-17T05:20:32.121Z,73.87
2018-04-17T05:22:58.359Z,74.27
2018-04-17T05:25:24.599Z,74.41
2018-04-17T05:27:50.907Z,74.35
2018-04-17T05:30:17.147Z,74.71
2018-04-17T05:32:43.391Z,74.47
2018-04-17T05:35:09.659Z,74.36
2018-04-17T05:37:35.903Z,74.19
2018-04-17T05:40:02.180Z,73.75
2018-04-17T05:42:28.495Z,73.59
2018-04-17T05:44:54.764Z,73.03
2018-04-17T05:47:21.067Z,73.28
2018-04-17T05:49:47.295Z,73.47
2018-04-17T05:52:13.531Z,73.21
2018-04-17T05:54:39.799Z,72.78
2018-04-17T05:57:06.051Z,72.56
2018-04-17T05:59:32.319Z,72.60
2018-04-17T06:01:58.542Z,72.40
2018-04-17T06:04:24.811Z,71.84
2018-04-17T06:06:51.079Z,71.72
2018-04-17T06:09:17.325Z,71.65
2018-04-17T06:11:43.587Z,71.93
2018-04-17T06:14:09.847Z,71.49
2018-04-17T06:16:36.088Z,71.47
2018-04-17T06:19:02.380Z,71.22
2018-04-17T06:21:28.603Z,70.94
2018-04-17T06:23:54.878Z,70.99
2018-04-17T06:26:21.134Z,70.96
2018-04-17T06:28:47.362Z,70.31
2018-04-17T06:31:13.651Z,70.33
2018-04-17T06:33:39.920Z,69.93
2018-04-17T06:36:06.206Z,69.89
2018-04-17T06:38:32.447Z,69.19
2018-04-17T06:40:58.702Z,68.19
2018-04-17T06:43:24.979Z,67.44
2018-04-17T06:45:51.246Z,67.38
2018-04-17T06:48:17.515Z,67.61
2018-04-17T06:50:43.767Z,67.21
2018-04-17T06:53:10.002Z,66.85
2018-04-17T06:55:36.275Z,67.04
2018-04-17T06:58:02.592Z,66.94
2018-04-17T07:00:28.892Z,66.96
2018-04-17T07:02:55.118Z,67.52
2018-04-17T07:05:21.428Z,68.14
2018-04-17T07:07:47.663Z,67.42
2018-04-17T07:10:13.903Z,67.52
2018-04-17T07:12:40.199Z,67.76
2018-04-17T07:15:06.450Z,68.26
2018-04-17T07:17:32.705Z,68.09
2018-04-17T07:19:58.976Z,67.50
2018-04-17T07:22:25.210Z,68.51
2018-04-17T07:24:51.486Z,69.36
2018-04-17T07:27:17.747Z,69.66
2018-04-17T07:29:43.990Z,69.44
2018-04-17T07:32:10.260Z,69.98
2018-04-17T07:34:36.656Z,70.17
2018-04-17T07:37:02.827Z,70.30
2018-04-17T07:39:29.091Z,69.97
2018-04-17T07:41:55.367Z,70.79
2018-04-17T07:44:21.630Z,70.62
2018-04-17T07:47:00.182Z,70.53
2018-04-17T07:49:26.448Z,69.79
2018-04-17T07:51:52.710Z,70.18
2018-04-17T07:54:18.984Z,70.76
2018-04-17T07:56:45.214Z,70.60
2018-04-17T07:59:11.463Z,70.45
2018-04-17T08:01:37.723Z,69.78
2018-04-17T08:04:03.973Z,69.39
2018-04-17T08:06:30.227Z,69.20
2018-04-17T08:08:56.471Z,68.93
2018-04-17T08:11:22.707Z,68.54
2018-04-17T08:13:48.979Z,68.75
2018-04-17T08:16:15.215Z,68.12
2018-04-17T08:18:41.482Z,67.91
2018-04-17T08:21:07.718Z,68.42
2018-04-17T08:23:33.958Z,68.17
2018-04-17T08:26:00.215Z,68.49
2018-04-17T08:28:26.459Z,67.36
2018-04-17T08:30:52.722Z,67.26
2018-04-17T08:33:18.970Z,67.67
2018-04-17T08:35:45.204Z,67.99
2018-04-17T08:38:12.418Z,67.48
2018-04-17T08:40:38.688Z,66.72
2018-04-17T08:43:04.998Z,66.17
2018-04-17T08:45:31.258Z,65.58
2018-04-17T08:47:57.507Z,64.94
2018-04-17T08:50:23.785Z,65.01
2018-04-17T08:52:50.015Z,64.97
2018-04-17T08:55:16.279Z,65.35
2018-04-17T08:57:42.511Z,64.47
2018-04-17T09:00:08.815Z,64.25
2018-04-17T09:02:35.082Z,63.60
2018-04-17T09:05:01.347Z,62.93
2018-04-17T09:07:27.619Z,62.07
2018-04-17T09:09:53.871Z,62.08
2018-04-17T09:12:20.160Z,61.29
2018-04-17T09:14:46.423Z,60.19
2018-04-17T09:17:12.707Z,57.66
2018-04-17T09:19:38.933Z,56.75
2018-04-17T09:22:05.211Z,55.62
2018-04-17T09:24:31.454Z,56.23
2018-04-17T09:26:57.700Z,57.44
2018-04-17T09:29:23.995Z,57.36
2018-04-17T09:31:50.239Z,57.48
2018-04-17T09:34:16.489Z,57.11
2018-04-17T09:36:42.795Z,57.34
2018-04-17T09:39:09.039Z,57.80
2018-04-17T09:41:35.366Z,56.83
2018-04-17T09:44:01.623Z,54.87
2018-04-17T09:46:27.875Z,52.32
2018-04-17T09:48:54.132Z,51.11
2018-04-17T09:51:20.378Z,51.55
2018-04-17T09:53:46.659Z,51.95
2018-04-17T09:56:12.950Z,51.86
2018-04-17T09:58:39.195Z,52.69
2018-04-17T10:01:11.700Z,51.84
2018-04-17T10:03:37.982Z,50.22
2018-04-17T10:06:04.238Z,49.64
2018-04-17T10:08:30.515Z,49.76
2018-04-17T10:10:56.759Z,47.75
2018-04-17T10:13:23.038Z,43.01
2018-04-17T10:15:49.315Z,42.05
2018-04-17T10:18:15.616Z,42.19
2018-04-17T10:20:41.865Z,41.08
2018-04-17T10:23:08.116Z,41.33
2018-04-17T10:25:34.378Z,39.40
2018-04-17T10:28:00.619Z,40.57
2018-04-17T10:30:26.899Z,40.05
2018-04-17T10:32:53.154Z,39.25
2018-04-17T10:35:19.439Z,38.61
2018-04-17T10:37:45.712Z,37.33
2018-04-17T10:40:11.991Z,35.34
2018-04-17T10:42:38.267Z,33.11
2018-04-17T10:45:04.548Z,32.71
2018-04-17T10:47:30.811Z,32.11
2018-04-17T10:49:57.103Z,32.74
2018-04-17T10:52:23.365Z,32.04
2018-04-17T10:54:49.651Z,31.41
2018-04-17T10:57:15.891Z,30.93
2018-04-17T10:59:42.163Z,30.70
2018-04-17T11:02:08.435Z,31.92
2018-04-17T11:04:34.671Z,33.25
2018-04-17T11:07:00.967Z,34.10
2018-04-17T11:09:27.207Z,35.91
2018-04-17T11:11:53.452Z,36.35
2018-04-17T11:14:19.727Z,36.32
2018-04-17T11:16:45.974Z,36.72
2018-04-17T11:19:12.296Z,35.87
2018-04-17T11:21:38.543Z,34.42
2018-04-17T11:24:04.792Z,33.30
2018-04-17T11:26:31.059Z,30.76
2018-04-17T11:28:57.299Z,29.58
2018-04-17T11:31:23.607Z,28.42
2018-04-17T11:33:49.871Z,26.81
2018-04-17T11:36:16.144Z,26.06
2018-04-17T11:38:42.414Z,25.96
2018-04-17T11:41:08.663Z,24.75
2018-04-17T11:43:34.947Z,24.18
2018-04-17T11:46:01.224Z,23.94
2018-04-17T11:48:27.476Z,23.28
2018-04-17T11:50:53.756Z,24.11
2018-04-17T11:53:19.999Z,23.97
2018-04-17T11:55:46.279Z,22.11
2018-04-17T11:58:12.555Z,22.54
2018-04-17T12:00:38.826Z,21.11
2018-04-17T12:03:05.131Z,21.46
2018-04-17T12:05:31.422Z,20.99
2018-04-17T12:07:57.705Z,22.50
2018-04-17T12:10:23.989Z,21.52
2018-04-17T12:12:50.290Z,20.85
2018-04-17T12:15:16.559Z,19.44
2018-04-17T12:17:42.818Z,19.52
2018-04-17T12:20:09.101Z,20.71
2018-04-17T12:22:35.354Z,21.12
2018-04-17T12:25:01.619Z,22.38
2018-04-17T12:27:27.888Z,22.51
2018-04-17T12:29:54.155Z,22.34
2018-04-17T12:32:20.460Z,21.26
2018-04-17T12:34:46.699Z,20.11
2018-04-17T12:37:12.950Z,20.48
2018-04-17T12:39:39.223Z,19.32
2018-04-17T12:42:05.466Z,20.39
2018-04-17T12:44:31.747Z,19.33
2018-04-17T12:46:58.025Z,18.48
2018-04-17T12:49:24.314Z,18.63
2018-04-17T12:51:50.607Z,18.13
2018-04-17T12:54:16.847Z,18.43
2018-04-17T12:56:43.133Z,18.06
2018-04-17T12:59:09.383Z,19.34
2018-04-17T13:01:35.623Z,18.58
2018-04-17T13:04:01.909Z,19.11
2018-04-17T13:06:28.167Z,20.45
2018-04-17T13:08:54.447Z,19.25
2018-04-17T13:11:20.679Z,20.15
2018-04-17T13:13:46.943Z,20.92
2018-04-17T13:16:13.213Z,21.56
2018-04-17T13:18:39.464Z,19.78
2018-04-17T13:21:05.726Z,19.38
2018-04-17T13:23:31.984Z,19.51
2018-04-17T13:25:58.242Z,19.10
2018-04-17T13:28:24.550Z,19.50
2018-04-17T13:30:50.810Z,20.41
2018-04-17T13:33:17.084Z,20.61
2018-04-17T13:35:43.332Z,19.48
2018-04-17T13:38:09.580Z,19.76
2018-04-17T13:40:35.894Z,19.04
2018-04-17T13:43:02.188Z,18.39
2018-04-17T13:45:28.445Z,18.42
2018-04-17T13:47:54.706Z,18.15
2018-04-17T13:50:20.967Z,17.21
2018-04-17T13:52:47.223Z,17.14
2018-04-17T13:55:13.485Z,18.29
2018-04-17T13:57:39.715Z,17.45
2018-04-17T14:00:05.991Z,17.45
2018-04-17T14:02:32.235Z,17.28
2018-04-17T14:04:58.496Z,17.71
2018-04-17T14:07:24.765Z,18.92
2018-04-17T14:09:51.026Z,18.16
2018-04-17T14:12:17.310Z,19.12
2018-04-17T14:14:43.559Z,19.18
2018-04-17T14:17:09.805Z,19.68
2018-04-17T14:19:36.104Z,19.24
2018-04-17T14:22:02.351Z,18.93
2018-04-17T14:24:28.631Z,19.60
2018-04-17T14:26:54.919Z,17.19
2018-04-17T14:29:21.174Z,18.12
2018-04-17T14:31:47.439Z,17.90
2018-04-17T14:34:13.704Z,17.77
2018-04-17T14:36:39.992Z,17.03
2018-04-17T14:39:06.246Z,16.49
2018-04-17T14:41:32.486Z,16.66
2018-04-17T14:43:58.754Z,17.34
2018-04-17T14:46:25.031Z,16.76
2018-04-17T14:48:51.299Z,17.10
2018-04-17T14:51:17.530Z,17.82
2018-04-17T14:53:43.766Z,18.34
2018-04-17T14:56:10.031Z,18.77
2018-04-17T14:58:36.275Z,20.21
2018-04-17T15:01:02.547Z,20.35
2018-04-17T15:03:28.798Z,20.21
2018-04-17T15:05:55.088Z,21.24
2018-04-17T15:08:21.399Z,19.89
2018-04-17T15:10:47.647Z,20.57
2018-04-17T15:13:13.919Z,20.29
2018-04-17T15:15:40.171Z,20.69
2018-04-17T15:18:06.407Z,21.63
2018-04-17T15:20:32.691Z,21.74
2018-04-17T15:22:58.961Z,21.97
2018-04-17T15:25:25.259Z,22.11
2018-04-17T15:27:51.506Z,22.46
2018-04-17T15:30:17.756Z,22.98
2018-04-17T15:32:44.075Z,23.07
2018-04-17T15:35:10.371Z,23.68
2018-04-17T15:37:36.663Z,23.93
2018-04-17T15:40:02.963Z,24.93
2018-04-17T15:42:30.040Z,24.76
2018-04-17T15:44:56.339Z,25.19
2018-04-17T15:47:22.593Z,25.28
2018-04-17T15:49:48.867Z,25.88
2018-04-17T15:52:15.103Z,26.93
2018-04-17T15:54:41.343Z,27.37
2018-04-17T15:57:07.601Z,29.01
2018-04-17T15:59:33.899Z,30.23
2018-04-17T16:02:00.166Z,31.47
2018-04-17T16:04:26.411Z,32.66
2018-04-17T16:06:52.697Z,32.77
2018-04-17T16:09:18.988Z,33.39
2018-04-17T16:11:45.223Z,33.36
2018-04-17T16:14:12.081Z,34.13
2018-04-17T16:16:38.371Z,35.08
2018-04-17T16:19:04.627Z,34.14
2018-04-17T16:21:30.966Z,34.98
2018-04-17T16:23:57.205Z,35.72
2018-04-17T16:26:23.500Z,37.20
2018-04-17T16:28:49.751Z,37.60
2018-04-17T16:31:16.000Z,37.82
2018-04-17T16:33:42.275Z,38.01
2018-04-17T16:36:08.552Z,37.38
2018-04-17T16:38:34.827Z,37.67
2018-04-17T16:41:01.120Z,37.57
2018-04-17T16:43:27.351Z,37.54
2018-04-17T16:45:53.619Z,37.29
2018-04-17T16:48:19.875Z,38.55
2018-04-17T16:50:46.150Z,39.56
2018-04-17T16:53:12.393Z,39.32
2018-04-17T16:55:38.658Z,39.83
2018-04-17T16:58:04.919Z,40.31
2018-04-17T17:00:31.171Z,40.83
2018-04-17T17:02:57.445Z,40.38
2018-04-17T17:05:23.726Z,40.95
2018-04-17T17:07:49.940Z,41.10
2018-04-17T17:10:16.227Z,41.50
2018-04-17T17:12:42.460Z,41.46
2018-04-17T17:15:08.751Z,42.26
2018-04-17T17:17:34.989Z,41.85
2018-04-17T17:20:01.267Z,42.75
2018-04-17T17:22:27.519Z,42.60
2018-04-17T17:24:53.759Z,43.12
2018-04-17T17:27:20.051Z,43.57
2018-04-17T17:29:46.307Z,43.55
2018-04-17T17:32:12.547Z,43.51
2018-04-17T17:34:38.810Z,43.71
2018-04-17T17:37:05.060Z,44.08
2018-04-17T17:39:31.291Z,44.08
2018-04-17T17:41:57.547Z,43.91
2018-04-17T17:44:23.782Z,43.42
2018-04-17T17:46:50.060Z,44.50
2018-04-17T17:49:16.354Z,44.82
2018-04-17T17:51:42.639Z,44.91
2018-04-17T17:54:08.879Z,44.98
2018-04-17T17:56:35.184Z,44.96
2018-04-17T17:59:01.460Z,45.35
2018-04-17T18:01:27.804Z,45.46
2018-04-17T18:03:54.071Z,46.04
2018-04-17T18:06:20.312Z,46.35
2018-04-17T18:08:46.584Z,46.90
2018-04-17T18:11:12.855Z,47.25
2018-04-17T18:13:39.124Z,47.79
2018-04-17T18:16:05.360Z,48.82
2018-04-17T18:18:31.630Z,48.83
2018-04-17T18:20:57.897Z,49.54
2018-04-17T18:23:24.137Z,50.14
2018-04-17T18:25:50.418Z,50.32
2018-04-17T18:28:16.656Z,50.50
2018-04-17T18:30:42.911Z,50.99
2018-04-17T18:33:09.194Z,51.29
2018-04-17T18:35:35.448Z,51.50
2018-04-17T18:38:01.752Z,51.85
2018-04-17T18:40:28.001Z,52.09
2018-04-17T18:42:54.231Z,52.28
2018-04-17T18:45:20.511Z,52.63
2018-04-17T18:47:46.761Z,52.46
2018-04-17T18:50:13.051Z,52.47
2018-04-17T18:52:39.314Z,52.46
2018-04-17T18:55:05.551Z,52.71
2018-04-17T18:57:31.825Z,52.85
2018-04-17T18:59:58.059Z,52.74
2018-04-17T19:02:24.329Z,53.14
2018-04-17T19:04:50.624Z,53.38
2018-04-17T19:07:16.900Z,53.47
2018-04-17T19:09:43.155Z,53.72
2018-04-17T19:12:09.397Z,53.84
2018-04-17T19:14:35.691Z,53.99
2018-04-17T19:17:01.954Z,54.02
2018-04-17T19:19:28.199Z,54.21
2018-04-17T19:21:54.459Z,54.15
2018-04-17T19:24:20.703Z,54.49
2018-04-17T19:26:46.966Z,54.76
2018-04-17T19:29:13.215Z,54.96
2018-04-17T19:31:39.455Z,55.08
2018-04-17T19:34:05.751Z,55.19
2018-04-17T19:36:31.980Z,55.27
2018-04-17T19:38:58.256Z,55.30
2018-04-17T19:41:24.511Z,55.70
2018-04-17T19:43:50.756Z,55.63
2018-04-17T19:46:17.013Z,56.07
2018-04-17T19:48:43.247Z,56.28
2018-04-17T19:51:09.520Z,56.37
2018-04-17T19:53:36.945Z,56.50
2018-04-17T19:56:03.227Z,56.25
2018-04-17T19:58:29.495Z,56.18
2018-04-17T20:00:55.735Z,56.54
2018-04-17T20:03:21.999Z,56.73
2018-04-17T20:05:48.235Z,56.78
2018-04-17T20:08:14.495Z,56.92
2018-04-17T20:10:40.770Z,57.39
2018-04-17T20:13:07.007Z,57.53
2018-04-17T20:15:33.278Z,57.33
2018-04-17T20:17:59.516Z,57.45
2018-04-17T20:20:25.759Z,57.78
2018-04-17T20:22:52.040Z,58.14
2018-04-17T20:25:18.279Z,58.25
2018-04-17T20:27:44.534Z,58.17
2018-04-17T20:30:10.779Z,58.39
2018-04-17T20:32:37.006Z,58.50
2018-04-17T20:35:03.284Z,58.47
2018-04-17T20:37:29.523Z,58.57
2018-04-17T20:39:55.831Z,58.67
2018-04-17T20:42:22.297Z,58.63
2018-04-17T20:44:48.558Z,58.77
2018-04-17T20:47:14.835Z,58.80
2018-04-17T20:49:41.063Z,58.96
2018-04-17T20:52:07.355Z,59.29
2018-04-17T20:54:33.618Z,59.61
2018-04-17T20:56:59.898Z,59.64
2018-04-17T20:59:26.155Z,59.64
2018-04-17T21:01:52.399Z,59.43
2018-04-17T21:04:18.663Z,59.69
2018-04-17T21:06:44.895Z,59.87
2018-04-17T21:09:11.150Z,59.92
2018-04-17T21:11:37.439Z,59.94
2018-04-17T21:14:03.702Z,59.72
2018-04-17T21:16:29.992Z,59.68
2018-04-17T21:18:56.258Z,59.80
2018-04-17T21:21:22.524Z,59.77
2018-04-17T21:23:48.786Z,59.96
2018-04-17T21:26:15.027Z,60.01
2018-04-17T21:28:41.263Z,60.31
2018-04-17T21:31:07.532Z,60.35
2018-04-17T21:33:33.767Z,60.39
2018-04-17T21:36:00.075Z,60.24
2018-04-17T21:38:26.315Z,60.37
2018-04-17T21:40:52.551Z,60.47
2018-04-17T21:43:19.655Z,60.48
2018-04-17T21:45:45.920Z,60.56
2018-04-17T21:48:12.155Z,60.80
2018-04-17T21:50:38.421Z,60.91
2018-04-17T21:53:04.655Z,60.95
2018-04-17T21:55:30.886Z,60.87
2018-04-17T21:57:57.926Z,60.76
2018-04-17T22:00:24.172Z,60.70
2018-04-17T22:02:50.450Z,61.27
2018-04-17T22:05:16.683Z,61.09
2018-04-17T22:07:42.927Z,61.39
2018-04-17T22:10:09.205Z,61.23
2018-04-17T22:12:35.426Z,61.17
2018-04-17T22:15:01.690Z,61.18
2018-04-17T22:17:27.915Z,61.10
2018-04-17T22:19:54.191Z,61.12
2018-04-17T22:22:20.488Z,60.69
2018-04-17T22:24:46.775Z,60.79
2018-04-17T22:27:13.055Z,60.75
2018-04-17T22:29:39.299Z,60.72
2018-04-17T22:32:05.535Z,60.72
2018-04-17T22:34:31.789Z,60.82
2018-04-17T22:36:58.058Z,60.77
2018-04-17T22:39:24.362Z,60.93
2018-04-17T22:41:50.631Z,60.74
2018-04-17T22:44:16.899Z,60.82
2018-04-17T22:46:43.199Z,61.17
2018-04-17T22:49:09.459Z,61.10
2018-04-17T22:51:35.762Z,61.44
2018-04-17T22:54:02.036Z,61.63
2018-04-17T22:56:28.323Z,61.77
2018-04-17T22:58:54.643Z,61.82
2018-04-17T23:01:20.903Z,61.72
2018-04-17T23:03:47.156Z,61.85
2018-04-17T23:06:13.403Z,61.59
2018-04-17T23:08:39.656Z,61.60
2018-04-17T23:11:05.922Z,61.33
2018-04-17T23:13:32.162Z,61.35
2018-04-17T23:15:58.454Z,61.34
2018-04-17T23:18:24.707Z,61.43
2018-04-17T23:20:50.942Z,61.68
2018-04-17T23:23:17.213Z,61.91
2018-04-17T23:25:43.454Z,62.17
2018-04-17T23:28:09.719Z,62.28
2018-04-17T23:30:35.965Z,62.24
2018-04-17T23:33:02.227Z,62.20
2018-04-17T23:35:28.487Z,62.12
2018-04-17T23:37:54.731Z,61.78
2018-04-17T23:40:21.038Z,61.64
2018-04-17T23:42:47.283Z,61.79
2018-04-17T23:45:13.542Z,61.95
2018-04-17T23:47:39.808Z,62.08
2018-04-17T23:50:06.056Z,62.40
2018-04-17T23:52:32.331Z,62.15
2018-04-17T23:54:58.575Z,62.43
2018-04-17T23:57:24.815Z,62.60
2018-04-17T23:59:51.084Z,62.56
